sensor_id;sensor_type;location;lat;lon;timestamp;pressure;altitude;pressure_sealevel;temperature;humidity
4326;BME280;58429;49.826;10.880;2022-07-04T00:00:32;98658.146;;;16.85;70.47
4326;BME280;58429;49.826;10.880;2022-07-04T00:01:32;98664.9931;;;16.85;70.63
4326;BME280;58429;49.826;10.880;2022-07-04T00:02:32;98663.874;;;16.93;70.42
4326;BME280;58429;49.826;10.880;2022-07-04T00:03:32;98662.4338;;;16.81;70.71
4326;BME280;58429;49.826;10.880;2022-07-04T00:04:32;98660.2319;;;16.85;70.71
4326;BME280;58429;49.826;10.880;2022-07-04T00:05:32;98664.9585;;;16.94;70.51
4326;BME280;58429;49.826;10.880;2022-07-04T00:06:32;98664.3767;;;16.98;70.35
4326;BME280;58429;49.826;10.880;2022-07-04T00:07:32;98668.5222;;;16.84;70.83
4326;BME280;58429;49.826;10.880;2022-07-04T00:08:32;98664.4095;;;17.18;69.79
4326;BME280;58429;49.826;10.880;2022-07-04T00:09:32;98668.4523;;;17.13;69.76
4326;BME280;58429;49.826;10.880;2022-07-04T00:10:32;98675.3166;;;16.83;71.04
4326;BME280;58429;49.826;10.880;2022-07-04T00:11:32;98678.8017;;;16.78;71.29
4326;BME280;58429;49.826;10.880;2022-07-04T00:12:32;98671.9088;;;16.69;71.64
4326;BME280;58429;49.826;10.880;2022-07-04T00:13:32;98675.4041;;;16.58;71.88
4326;BME280;58429;49.826;10.880;2022-07-04T00:14:32;98676.5598;;;16.65;71.7
4326;BME280;58429;49.826;10.880;2022-07-04T00:15:32;98671.1003;;;16.96;70.66
4326;BME280;58429;49.826;10.880;2022-07-04T00:16:32;98671.8001;;;17.16;69.84
4326;BME280;58429;49.826;10.880;2022-07-04T00:17:32;98675.3748;;;17.23;69.34
4326;BME280;58429;49.826;10.880;2022-07-04T00:18:32;98683.2041;;;17.32;69.02
4326;BME280;58429;49.826;10.880;2022-07-04T00:19:32;98679.5537;;;17.27;68.9
4326;BME280;58429;49.826;10.880;2022-07-04T00:20:32;98681.8696;;;17.11;69.64
4326;BME280;58429;49.826;10.880;2022-07-04T00:21:32;98683.4365;;;17;70.1
4326;BME280;58429;49.826;10.880;2022-07-04T00:22:32;98685.5978;;;16.96;70.31
4326;BME280;58429;49.826;10.880;2022-07-04T00:23:32;98688.4593;;;16.65;71.35
4326;BME280;58429;49.826;10.880;2022-07-04T00:24:32;98684.7867;;;16.94;70.42
4326;BME280;58429;49.826;10.880;2022-07-04T00:25:32;98682.7495;;;17.04;69.99
4326;BME280;58429;49.826;10.880;2022-07-04T00:26:32;98682.5253;;;17.09;69.76
4326;BME280;58429;49.826;10.880;2022-07-04T00:27:32;98686.5995;;;17.23;69.29
4326;BME280;58429;49.826;10.880;2022-07-04T00:28:32;98685.0224;;;17.28;68.95
4326;BME280;58429;49.826;10.880;2022-07-04T00:29:32;98686.6113;;;17.23;69.42
4326;BME280;58429;49.826;10.880;2022-07-04T00:30:32;98687.4071;;;17.18;69.33
4326;BME280;58429;49.826;10.880;2022-07-04T00:31:32;98690.4696;;;17.22;69.1
4326;BME280;58429;49.826;10.880;2022-07-04T00:32:32;98689.0484;;;17.21;69.27
4326;BME280;58429;49.826;10.880;2022-07-04T00:33:32;98694.1949;;;17.18;69.12
4326;BME280;58429;49.826;10.880;2022-07-04T00:34:33;98691.4325;;;17.05;69.54
4326;BME280;58429;49.826;10.880;2022-07-04T00:35:32;98694.288;;;17.2;69.2
4326;BME280;58429;49.826;10.880;2022-07-04T00:36:32;98693.6259;;;17.18;69.17
4326;BME280;58429;49.826;10.880;2022-07-04T00:37:32;98691.2162;;;17.24;68.95
4326;BME280;58429;49.826;10.880;2022-07-04T00:38:32;98691.9487;;;17.19;69.19
4326;BME280;58429;49.826;10.880;2022-07-04T00:39:32;98691.9153;;;17.21;68.93
4326;BME280;58429;49.826;10.880;2022-07-04T00:40:32;98688.6597;;;17.2;69.17
4326;BME280;58429;49.826;10.880;2022-07-04T00:41:32;98689.0703;;;17.28;69.07
4326;BME280;58429;49.826;10.880;2022-07-04T00:42:32;98690.0603;;;17.21;69.28
4326;BME280;58429;49.826;10.880;2022-07-04T00:43:32;98687.0878;;;17.21;69.15
4326;BME280;58429;49.826;10.880;2022-07-04T00:44:32;98684.7309;;;17.26;68.93
4326;BME280;58429;49.826;10.880;2022-07-04T00:45:32;98685.1389;;;17.35;68.58
4326;BME280;58429;49.826;10.880;2022-07-04T00:46:32;98684.9418;;;17.33;68.65
4326;BME280;58429;49.826;10.880;2022-07-04T00:47:32;98693.0954;;;17.37;68.49
4326;BME280;58429;49.826;10.880;2022-07-04T00:48:32;98695.0742;;;17.32;68.6
4326;BME280;58429;49.826;10.880;2022-07-04T00:49:32;98694.2445;;;17.29;68.41
4326;BME280;58429;49.826;10.880;2022-07-04T00:50:32;98693.3094;;;17.18;68.78
4326;BME280;58429;49.826;10.880;2022-07-04T00:51:32;98696.3611;;;17.1;69.12
4326;BME280;58429;49.826;10.880;2022-07-04T00:52:32;98693.1072;;;17.05;69.29
4326;BME280;58429;49.826;10.880;2022-07-04T00:53:32;98693.0241;;;17.03;69.36
4326;BME280;58429;49.826;10.880;2022-07-04T00:54:32;98693.0773;;;17.02;69.56
4326;BME280;58429;49.826;10.880;2022-07-04T00:55:32;98691.0726;;;17.08;69.38
4326;BME280;58429;49.826;10.880;2022-07-04T00:56:32;98691.0778;;;17.15;69.06
4326;BME280;58429;49.826;10.880;2022-07-04T00:57:32;98689.7588;;;17.17;68.97
4326;BME280;58429;49.826;10.880;2022-07-04T00:58:32;98687.7195;;;17.11;69.09
4326;BME280;58429;49.826;10.880;2022-07-04T00:59:32;98686.3757;;;17.01;69.48
4326;BME280;58429;49.826;10.880;2022-07-04T01:00:32;98683.7383;;;17.07;69.26
4326;BME280;58429;49.826;10.880;2022-07-04T01:01:32;98686.1669;;;16.96;69.88
4326;BME280;58429;49.826;10.880;2022-07-04T01:02:32;98681.5596;;;17.03;69.67
4326;BME280;58429;49.826;10.880;2022-07-04T01:03:32;98681.7896;;;17.07;69.62
4326;BME280;58429;49.826;10.880;2022-07-04T01:04:32;98681.7206;;;16.96;69.96
4326;BME280;58429;49.826;10.880;2022-07-04T01:05:32;98683.5329;;;16.96;69.94
4326;BME280;58429;49.826;10.880;2022-07-04T01:06:32;98678.233;;;16.64;71.32
4326;BME280;58429;49.826;10.880;2022-07-04T01:07:32;98679.8068;;;16.58;71.89
4326;BME280;58429;49.826;10.880;2022-07-04T01:08:32;98680.3067;;;16.63;71.51
4326;BME280;58429;49.826;10.880;2022-07-04T01:09:32;98678.679;;;16.67;71.39
4326;BME280;58429;49.826;10.880;2022-07-04T01:10:32;98679.9507;;;16.82;70.96
4326;BME280;58429;49.826;10.880;2022-07-04T01:11:32;98676.9803;;;16.89;70.71
4326;BME280;58429;49.826;10.880;2022-07-04T01:12:32;98680.3829;;;16.87;70.69
4326;BME280;58429;49.826;10.880;2022-07-04T01:13:32;98676.085;;;16.83;70.88
4326;BME280;58429;49.826;10.880;2022-07-04T01:14:36;98678.0133;;;16.83;70.83
4326;BME280;58429;49.826;10.880;2022-07-04T01:15:32;98681.1373;;;16.61;71.52
4326;BME280;58429;49.826;10.880;2022-07-04T01:16:32;98680.7339;;;16.3;72.7
4326;BME280;58429;49.826;10.880;2022-07-04T01:17:32;98683.0118;;;16.2;73.31
4326;BME280;58429;49.826;10.880;2022-07-04T01:18:32;98680.9425;;;16.25;73.25
4326;BME280;58429;49.826;10.880;2022-07-04T01:19:32;98682.8491;;;16.08;73.8
4326;BME280;58429;49.826;10.880;2022-07-04T01:20:34;98689.5134;;;16.12;73.89
4326;BME280;58429;49.826;10.880;2022-07-04T01:21:32;98690.6427;;;16.32;73.11
4326;BME280;58429;49.826;10.880;2022-07-04T01:22:32;98688.1425;;;16.56;72.37
4326;BME280;58429;49.826;10.880;2022-07-04T01:23:35;98690.6891;;;16.73;71.48
4326;BME280;58429;49.826;10.880;2022-07-04T01:24:32;98689.782;;;16.7;71.37
4326;BME280;58429;49.826;10.880;2022-07-04T01:25:32;98695.8568;;;16.53;72.13
4326;BME280;58429;49.826;10.880;2022-07-04T01:26:32;98697.7529;;;16.04;74.06
4326;BME280;58429;49.826;10.880;2022-07-04T01:27:32;98699.5073;;;15.65;75.76
4326;BME280;58429;49.826;10.880;2022-07-04T01:28:32;98699.7608;;;15.72;75.67
4326;BME280;58429;49.826;10.880;2022-07-04T01:29:32;98698.8841;;;15.82;75.42
4326;BME280;58429;49.826;10.880;2022-07-04T01:30:32;98698.6614;;;15.96;74.81
4326;BME280;58429;49.826;10.880;2022-07-04T01:31:32;98698.7014;;;15.98;74.77
4326;BME280;58429;49.826;10.880;2022-07-04T01:32:32;98700.7675;;;16.02;74.55
4326;BME280;58429;49.826;10.880;2022-07-04T01:33:32;98699.6291;;;16.02;74.72
4326;BME280;58429;49.826;10.880;2022-07-04T01:34:32;98697.7904;;;16.17;74.12
4326;BME280;58429;49.826;10.880;2022-07-04T01:35:32;98698.3659;;;16.31;73.55
4326;BME280;58429;49.826;10.880;2022-07-04T01:36:32;98695.6214;;;16.36;73.21
4326;BME280;58429;49.826;10.880;2022-07-04T01:37:32;98697.4208;;;16.57;72.47
4326;BME280;58429;49.826;10.880;2022-07-04T01:38:32;98701.396;;;16.79;71.46
4326;BME280;58429;49.826;10.880;2022-07-04T01:39:32;98703.8324;;;16.46;72.97
4326;BME280;58429;49.826;10.880;2022-07-04T01:40:32;98708.0883;;;16.23;73.83
4326;BME280;58429;49.826;10.880;2022-07-04T01:41:33;98703.1057;;;16.25;73.9
4326;BME280;58429;49.826;10.880;2022-07-04T01:42:32;98702.4004;;;16.18;74.23
4326;BME280;58429;49.826;10.880;2022-07-04T01:43:32;98701.9117;;;16.07;75.05
4326;BME280;58429;49.826;10.880;2022-07-04T01:44:32;98702.8774;;;15.93;74.77
4326;BME280;58429;49.826;10.880;2022-07-04T01:45:32;98702.6525;;;15.9;75.08
4326;BME280;58429;49.826;10.880;2022-07-04T01:46:32;98704.7042;;;16.14;74.12
4326;BME280;58429;49.826;10.880;2022-07-04T01:47:32;98703.5061;;;16.09;74.38
4326;BME280;58429;49.826;10.880;2022-07-04T01:48:32;98708.2149;;;15.89;75.12
4326;BME280;58429;49.826;10.880;2022-07-04T01:49:32;98703.0857;;;15.88;75.09
4326;BME280;58429;49.826;10.880;2022-07-04T01:50:32;98705.0212;;;16.09;74.28
4326;BME280;58429;49.826;10.880;2022-07-04T01:51:32;98709.8909;;;16.24;73.83
4326;BME280;58429;49.826;10.880;2022-07-04T01:52:34;98707.2225;;;16.22;73.86
4326;BME280;58429;49.826;10.880;2022-07-04T01:53:35;98709.1158;;;16.12;74.2
4326;BME280;58429;49.826;10.880;2022-07-04T01:54:32;98709.5828;;;16.26;73.68
4326;BME280;58429;49.826;10.880;2022-07-04T01:55:32;98705.4512;;;16.28;73.28
4326;BME280;58429;49.826;10.880;2022-07-04T01:56:32;98706.6351;;;16.16;73.83
4326;BME280;58429;49.826;10.880;2022-07-04T01:57:32;98709.9858;;;16.31;73.34
4326;BME280;58429;49.826;10.880;2022-07-04T01:58:32;98709.2173;;;16.24;73.66
4326;BME280;58429;49.826;10.880;2022-07-04T01:59:32;98705.8418;;;16.03;74.62
4326;BME280;58429;49.826;10.880;2022-07-04T02:00:32;98706.3474;;;15.93;75.04
4326;BME280;58429;49.826;10.880;2022-07-04T02:01:32;98708.9017;;;15.83;75.82
4326;BME280;58429;49.826;10.880;2022-07-04T02:02:32;98706.4837;;;15.9;75.74
4326;BME280;58429;49.826;10.880;2022-07-04T02:03:32;98700.3774;;;15.94;75.34
4326;BME280;58429;49.826;10.880;2022-07-04T02:04:32;98705.6504;;;15.95;74.91
4326;BME280;58429;49.826;10.880;2022-07-04T02:05:32;98705.8029;;;15.94;75.1
4326;BME280;58429;49.826;10.880;2022-07-04T02:06:32;98704.3998;;;15.9;74.93
4326;BME280;58429;49.826;10.880;2022-07-04T02:07:32;98710.7706;;;15.66;76.07
4326;BME280;58429;49.826;10.880;2022-07-04T02:08:33;98711.0143;;;15.57;76.6
4326;BME280;58429;49.826;10.880;2022-07-04T02:09:33;98709.3844;;;15.5;77.16
4326;BME280;58429;49.826;10.880;2022-07-04T02:10:32;98712.7481;;;15.5;77.4
4326;BME280;58429;49.826;10.880;2022-07-04T02:11:32;98709.5191;;;15.41;77.62
4326;BME280;58429;49.826;10.880;2022-07-04T02:12:32;98709.7156;;;15.33;78.2
4326;BME280;58429;49.826;10.880;2022-07-04T02:13:32;98710.803;;;15.16;78.79
4326;BME280;58429;49.826;10.880;2022-07-04T02:14:32;98710.6515;;;15.27;78.71
4326;BME280;58429;49.826;10.880;2022-07-04T02:15:33;98712.3131;;;15.41;77.84
4326;BME280;58429;49.826;10.880;2022-07-04T02:16:32;98707.2477;;;15.18;78.41
4326;BME280;58429;49.826;10.880;2022-07-04T02:17:33;98704.5581;;;15.18;78.7
4326;BME280;58429;49.826;10.880;2022-07-04T02:18:32;98702.3739;;;15.21;78.54
4326;BME280;58429;49.826;10.880;2022-07-04T02:19:32;98701.6184;;;15.26;78.34
4326;BME280;58429;49.826;10.880;2022-07-04T02:20:33;98703.7181;;;15.4;77.61
4326;BME280;58429;49.826;10.880;2022-07-04T02:21:32;98703.9882;;;15.42;77.45
4326;BME280;58429;49.826;10.880;2022-07-04T02:22:32;98705.3802;;;15.2;78.36
4326;BME280;58429;49.826;10.880;2022-07-04T02:23:32;98706.047;;;15.1;78.71
4326;BME280;58429;49.826;10.880;2022-07-04T02:24:33;98707.3901;;;15.42;77.72
4326;BME280;58429;49.826;10.880;2022-07-04T02:25:33;98705.9322;;;15.34;77.73
4326;BME280;58429;49.826;10.880;2022-07-04T02:26:32;98709.7727;;;15.27;78.13
4326;BME280;58429;49.826;10.880;2022-07-04T02:27:32;98709.1102;;;15.53;77.09
4326;BME280;58429;49.826;10.880;2022-07-04T02:28:32;98714.32;;;15.73;76.13
4326;BME280;58429;49.826;10.880;2022-07-04T02:29:32;98715.7425;;;15.8;75.73
4326;BME280;58429;49.826;10.880;2022-07-04T02:30:32;98716.5977;;;15.76;75.93
4326;BME280;58429;49.826;10.880;2022-07-04T02:31:32;98718.2034;;;15.72;76.03
4326;BME280;58429;49.826;10.880;2022-07-04T02:32:32;98719.5228;;;15.69;76.48
4326;BME280;58429;49.826;10.880;2022-07-04T02:33:32;98719.3461;;;15.49;76.93
4326;BME280;58429;49.826;10.880;2022-07-04T02:34:32;98717.9922;;;15.41;77.41
4326;BME280;58429;49.826;10.880;2022-07-04T02:35:32;98719.7387;;;15.42;77.34
4326;BME280;58429;49.826;10.880;2022-07-04T02:36:32;98718.5914;;;15.45;77.36
4326;BME280;58429;49.826;10.880;2022-07-04T02:37:32;98718.937;;;15.35;77.64
4326;BME280;58429;49.826;10.880;2022-07-04T02:38:32;98721.8187;;;15.23;78.27
4326;BME280;58429;49.826;10.880;2022-07-04T02:39:32;98722.5969;;;15.29;78.1
4326;BME280;58429;49.826;10.880;2022-07-04T02:40:32;98726.7344;;;15.16;78.49
4326;BME280;58429;49.826;10.880;2022-07-04T02:41:32;98725.0539;;;15.29;78.14
4326;BME280;58429;49.826;10.880;2022-07-04T02:42:33;98728.1439;;;15.26;78.25
4326;BME280;58429;49.826;10.880;2022-07-04T02:43:32;98730.2545;;;15.14;78.83
4326;BME280;58429;49.826;10.880;2022-07-04T02:44:32;98736.1749;;;14.95;79.56
4326;BME280;58429;49.826;10.880;2022-07-04T02:45:32;98736.0593;;;14.78;80.25
4326;BME280;58429;49.826;10.880;2022-07-04T02:46:32;98738.7415;;;14.86;80.34
4326;BME280;58429;49.826;10.880;2022-07-04T02:47:32;98739.7485;;;14.83;80.39
4326;BME280;58429;49.826;10.880;2022-07-04T02:48:32;98742.0703;;;14.78;80.78
4326;BME280;58429;49.826;10.880;2022-07-04T02:49:32;98743.2258;;;14.81;80.48
4326;BME280;58429;49.826;10.880;2022-07-04T02:50:32;98741.0908;;;14.75;80.94
4326;BME280;58429;49.826;10.880;2022-07-04T02:51:32;98743.0711;;;14.95;80.28
4326;BME280;58429;49.826;10.880;2022-07-04T02:52:32;98743.5186;;;14.9;80.22
4326;BME280;58429;49.826;10.880;2022-07-04T02:53:32;98741.2958;;;14.79;80.6
4326;BME280;58429;49.826;10.880;2022-07-04T02:54:32;98743.4966;;;14.88;80.45
4326;BME280;58429;49.826;10.880;2022-07-04T02:55:32;98743.5249;;;14.89;80.51
4326;BME280;58429;49.826;10.880;2022-07-04T02:56:32;98750.1235;;;15.27;78.82
4326;BME280;58429;49.826;10.880;2022-07-04T02:57:32;98746.2563;;;15.46;77.83
4326;BME280;58429;49.826;10.880;2022-07-04T02:58:32;98748.5907;;;15.54;77.37
4326;BME280;58429;49.826;10.880;2022-07-04T02:59:32;98746.4425;;;15.54;77.23
4326;BME280;58429;49.826;10.880;2022-07-04T03:00:32;98747.832;;;15.59;77.03
4326;BME280;58429;49.826;10.880;2022-07-04T03:01:32;98739.7607;;;15.53;77.22
4326;BME280;58429;49.826;10.880;2022-07-04T03:02:32;98748.6948;;;15.45;77.48
4326;BME280;58429;49.826;10.880;2022-07-04T03:03:33;98749.9529;;;15.17;78.88
4326;BME280;58429;49.826;10.880;2022-07-04T03:04:32;98747.4977;;;15.4;78
4326;BME280;58429;49.826;10.880;2022-07-04T03:05:32;98752.2411;;;15.17;78.89
4326;BME280;58429;49.826;10.880;2022-07-04T03:06:33;98754.1525;;;15.03;79.58
4326;BME280;58429;49.826;10.880;2022-07-04T03:07:32;98750.6563;;;15.07;79.46
4326;BME280;58429;49.826;10.880;2022-07-04T03:08:32;98749.2852;;;15.3;78.74
4326;BME280;58429;49.826;10.880;2022-07-04T03:09:32;98746.3367;;;15.23;78.83
4326;BME280;58429;49.826;10.880;2022-07-04T03:10:32;98746.1449;;;15.18;79.09
4326;BME280;58429;49.826;10.880;2022-07-04T03:11:32;98745.2545;;;15.43;78.18
4326;BME280;58429;49.826;10.880;2022-07-04T03:12:33;98745.1774;;;15.61;77
4326;BME280;58429;49.826;10.880;2022-07-04T03:13:33;98746.6947;;;15.67;76.85
4326;BME280;58429;49.826;10.880;2022-07-04T03:14:32;98747.2679;;;15.75;76.53
4326;BME280;58429;49.826;10.880;2022-07-04T03:15:32;98748.3607;;;15.85;76.16
4326;BME280;58429;49.826;10.880;2022-07-04T03:16:32;98750.1524;;;15.7;76.87
4326;BME280;58429;49.826;10.880;2022-07-04T03:17:32;98745.7955;;;15.36;78.09
4326;BME280;58429;49.826;10.880;2022-07-04T03:18:32;98746.9362;;;15.43;78.03
4326;BME280;58429;49.826;10.880;2022-07-04T03:19:32;98744.7055;;;15.28;78.81
4326;BME280;58429;49.826;10.880;2022-07-04T03:20:32;98746.4951;;;15.37;78.61
4326;BME280;58429;49.826;10.880;2022-07-04T03:21:32;98751.9975;;;15.25;79.02
4326;BME280;58429;49.826;10.880;2022-07-04T03:22:32;98757.0171;;;15.2;79.33
4326;BME280;58429;49.826;10.880;2022-07-04T03:23:33;98759.883;;;15.13;79.74
4326;BME280;58429;49.826;10.880;2022-07-04T03:24:33;98764.8497;;;15.02;80.13
4326;BME280;58429;49.826;10.880;2022-07-04T03:25:32;98772.0624;;;14.96;80.68
4326;BME280;58429;49.826;10.880;2022-07-04T03:26:32;98778.0912;;;14.99;80.98
4326;BME280;58429;49.826;10.880;2022-07-04T03:27:33;98780.2311;;;15.04;80.89
4326;BME280;58429;49.826;10.880;2022-07-04T03:28:33;98782.7866;;;14.92;81.44
4326;BME280;58429;49.826;10.880;2022-07-04T03:29:32;98784.025;;;15.04;80.59
4326;BME280;58429;49.826;10.880;2022-07-04T03:30:33;98786.1385;;;14.89;81.14
4326;BME280;58429;49.826;10.880;2022-07-04T03:31:32;98782.7068;;;14.93;81
4326;BME280;58429;49.826;10.880;2022-07-04T03:32:33;98783.4811;;;15.13;80.14
4326;BME280;58429;49.826;10.880;2022-07-04T03:33:32;98778.5411;;;15.13;79.74
4326;BME280;58429;49.826;10.880;2022-07-04T03:34:32;98773.9052;;;15.16;79.41
4326;BME280;58429;49.826;10.880;2022-07-04T03:35:32;98773.8259;;;15.24;79.22
4326;BME280;58429;49.826;10.880;2022-07-04T03:36:33;98770.8546;;;15.32;78.87
4326;BME280;58429;49.826;10.880;2022-07-04T03:37:32;98766.1845;;;15.32;78.92
4326;BME280;58429;49.826;10.880;2022-07-04T03:38:32;98765.5144;;;15.35;78.55
4326;BME280;58429;49.826;10.880;2022-07-04T03:39:32;98764.8411;;;15.57;77.82
4326;BME280;58429;49.826;10.880;2022-07-04T03:40:33;98768.6465;;;15.38;78.37
4326;BME280;58429;49.826;10.880;2022-07-04T03:41:33;98767.7181;;;15.33;78.58
4326;BME280;58429;49.826;10.880;2022-07-04T03:42:33;98773.7314;;;15.4;78.42
4326;BME280;58429;49.826;10.880;2022-07-04T03:43:32;98773.0458;;;15.38;78.63
4326;BME280;58429;49.826;10.880;2022-07-04T03:44:33;98779.6769;;;15.34;78.97
4326;BME280;58429;49.826;10.880;2022-07-04T03:45:33;98781.1569;;;15.54;78.26
4326;BME280;58429;49.826;10.880;2022-07-04T03:46:33;98782.3505;;;15.04;80.2
4326;BME280;58429;49.826;10.880;2022-07-04T03:47:33;98787.6678;;;14.91;81.17
4326;BME280;58429;49.826;10.880;2022-07-04T03:48:33;98789.5013;;;14.75;81.97
4326;BME280;58429;49.826;10.880;2022-07-04T03:49:33;98793.9161;;;14.59;83.02
4326;BME280;58429;49.826;10.880;2022-07-04T03:50:33;98800.1549;;;14.45;84.06
4326;BME280;58429;49.826;10.880;2022-07-04T03:51:33;98799.9172;;;14.66;83.34
4326;BME280;58429;49.826;10.880;2022-07-04T03:52:33;98799.1257;;;14.73;82.93
4326;BME280;58429;49.826;10.880;2022-07-04T03:53:33;98797.7578;;;14.72;83
4326;BME280;58429;49.826;10.880;2022-07-04T03:54:33;98794.0338;;;14.97;82.26
4326;BME280;58429;49.826;10.880;2022-07-04T03:55:33;98797.8443;;;14.92;82.06
4326;BME280;58429;49.826;10.880;2022-07-04T03:56:33;98801.0383;;;14.78;82.88
4326;BME280;58429;49.826;10.880;2022-07-04T03:57:33;98799.9694;;;15.11;81.64
4326;BME280;58429;49.826;10.880;2022-07-04T03:58:33;98804.4644;;;15.12;81.56
4326;BME280;58429;49.826;10.880;2022-07-04T03:59:33;98805.4415;;;15.04;81.64
4326;BME280;58429;49.826;10.880;2022-07-04T04:00:33;98807.2698;;;15.06;81.57
4326;BME280;58429;49.826;10.880;2022-07-04T04:01:33;98814.9502;;;14.87;82.79
4326;BME280;58429;49.826;10.880;2022-07-04T04:02:33;98815.4333;;;15.23;81.5
4326;BME280;58429;49.826;10.880;2022-07-04T04:03:33;98819.9059;;;15.44;80.34
4326;BME280;58429;49.826;10.880;2022-07-04T04:04:33;98819.8111;;;15.37;80.43
4326;BME280;58429;49.826;10.880;2022-07-04T04:05:33;98821.238;;;15.35;80.45
4326;BME280;58429;49.826;10.880;2022-07-04T04:06:33;98816.0149;;;15.29;80.53
4326;BME280;58429;49.826;10.880;2022-07-04T04:07:33;98809.1472;;;15.07;81.32
4326;BME280;58429;49.826;10.880;2022-07-04T04:08:33;98814.2329;;;14.93;82.05
4326;BME280;58429;49.826;10.880;2022-07-04T04:09:33;98814.2289;;;14.98;82.09
4326;BME280;58429;49.826;10.880;2022-07-04T04:10:33;98812.5004;;;15.04;81.86
4326;BME280;58429;49.826;10.880;2022-07-04T04:11:33;98809.2867;;;15.06;81.8
4326;BME280;58429;49.826;10.880;2022-07-04T04:12:33;98819.1025;;;14.98;81.93
4326;BME280;58429;49.826;10.880;2022-07-04T04:13:33;98819.6103;;;14.93;82.16
4326;BME280;58429;49.826;10.880;2022-07-04T04:14:33;98818.849;;;14.92;82.42
4326;BME280;58429;49.826;10.880;2022-07-04T04:15:33;98822.8181;;;14.87;82.58
4326;BME280;58429;49.826;10.880;2022-07-04T04:16:33;98827.0037;;;14.7;83.49
4326;BME280;58429;49.826;10.880;2022-07-04T04:17:33;98826.8965;;;14.7;83.6
4326;BME280;58429;49.826;10.880;2022-07-04T04:18:33;98832.3626;;;14.72;83.73
4326;BME280;58429;49.826;10.880;2022-07-04T04:19:33;98835.8025;;;14.94;82.85
4326;BME280;58429;49.826;10.880;2022-07-04T04:20:33;98841.6032;;;15;82.54
4326;BME280;58429;49.826;10.880;2022-07-04T04:21:33;98848.722;;;15.01;82.37
4326;BME280;58429;49.826;10.880;2022-07-04T04:22:33;98849.2757;;;14.85;82.76
4326;BME280;58429;49.826;10.880;2022-07-04T04:23:33;98851.4717;;;14.83;82.99
4326;BME280;58429;49.826;10.880;2022-07-04T04:24:33;98850.7387;;;15.01;82.56
4326;BME280;58429;49.826;10.880;2022-07-04T04:25:33;98836.9529;;;14.98;82.33
4326;BME280;58429;49.826;10.880;2022-07-04T04:26:33;98835.7809;;;15.14;81.65
4326;BME280;58429;49.826;10.880;2022-07-04T04:27:33;98830.9573;;;15.28;80.94
4326;BME280;58429;49.826;10.880;2022-07-04T04:28:33;98830.707;;;15.44;80.44
4326;BME280;58429;49.826;10.880;2022-07-04T04:29:33;98828.9156;;;15.45;80.35
4326;BME280;58429;49.826;10.880;2022-07-04T04:30:33;98828.9831;;;15.41;80.14
4326;BME280;58429;49.826;10.880;2022-07-04T04:31:33;98828.4666;;;15.53;79.73
4326;BME280;58429;49.826;10.880;2022-07-04T04:32:33;98833.6421;;;15.6;79.71
4326;BME280;58429;49.826;10.880;2022-07-04T04:33:34;98833.3099;;;15.66;79.44
4326;BME280;58429;49.826;10.880;2022-07-04T04:34:33;98834.7678;;;15.69;79.24
4326;BME280;58429;49.826;10.880;2022-07-04T04:35:33;98840.1672;;;15.46;80.25
4326;BME280;58429;49.826;10.880;2022-07-04T04:36:33;98839.5014;;;15.35;80.95
4326;BME280;58429;49.826;10.880;2022-07-04T04:37:33;98838.5171;;;15.28;81.36
4326;BME280;58429;49.826;10.880;2022-07-04T04:38:33;98837.6674;;;15.29;81.49
4326;BME280;58429;49.826;10.880;2022-07-04T04:39:33;98836.3876;;;15.33;81.54
4326;BME280;58429;49.826;10.880;2022-07-04T04:40:33;98838.0017;;;15.48;81.19
4326;BME280;58429;49.826;10.880;2022-07-04T04:41:33;98828.4803;;;15.48;81.24
4326;BME280;58429;49.826;10.880;2022-07-04T04:42:33;98830.1332;;;15.68;80.28
4326;BME280;58429;49.826;10.880;2022-07-04T04:43:33;98830.0782;;;15.76;79.88
4326;BME280;58429;49.826;10.880;2022-07-04T04:44:33;98827.948;;;15.74;79.75
4326;BME280;58429;49.826;10.880;2022-07-04T04:45:33;98830.5031;;;15.83;79.3
4326;BME280;58429;49.826;10.880;2022-07-04T04:46:33;98831.8665;;;15.9;78.88
4326;BME280;58429;49.826;10.880;2022-07-04T04:47:33;98829.4007;;;16;78.66
4326;BME280;58429;49.826;10.880;2022-07-04T04:48:33;98830.361;;;16.04;78.58
4326;BME280;58429;49.826;10.880;2022-07-04T04:49:33;98830.9452;;;16.09;78.53
4326;BME280;58429;49.826;10.880;2022-07-04T04:50:33;98833.7091;;;16.14;78.14
4326;BME280;58429;49.826;10.880;2022-07-04T04:51:33;98833.9925;;;16.24;77.46
4326;BME280;58429;49.826;10.880;2022-07-04T04:52:33;98838.7751;;;16.29;77.2
4326;BME280;58429;49.826;10.880;2022-07-04T04:53:33;98838.9262;;;16.41;76.64
4326;BME280;58429;49.826;10.880;2022-07-04T04:54:33;98843.274;;;16.5;76.6
4326;BME280;58429;49.826;10.880;2022-07-04T04:55:33;98841.5489;;;16.48;76.84
4326;BME280;58429;49.826;10.880;2022-07-04T04:56:33;98842.3346;;;16.55;77.11
4326;BME280;58429;49.826;10.880;2022-07-04T04:57:33;98845.2259;;;16.65;76.45
4326;BME280;58429;49.826;10.880;2022-07-04T04:58:33;98846.5465;;;16.55;76.86
4326;BME280;58429;49.826;10.880;2022-07-04T04:59:34;98847.4458;;;16.51;76.92
4326;BME280;58429;49.826;10.880;2022-07-04T05:00:33;98842.3764;;;16.66;76.4
4326;BME280;58429;49.826;10.880;2022-07-04T05:01:33;98845.686;;;16.61;76.44
4326;BME280;58429;49.826;10.880;2022-07-04T05:02:33;98845.0763;;;16.61;76.63
4326;BME280;58429;49.826;10.880;2022-07-04T05:03:33;98846.6904;;;16.54;76.31
4326;BME280;58429;49.826;10.880;2022-07-04T05:04:33;98848.1055;;;16.66;76.09
4326;BME280;58429;49.826;10.880;2022-07-04T05:05:33;98845.3774;;;16.76;76.3
4326;BME280;58429;49.826;10.880;2022-07-04T05:06:33;98844.6189;;;16.95;75.15
4326;BME280;58429;49.826;10.880;2022-07-04T05:07:33;98838.9836;;;17.12;74.63
4326;BME280;58429;49.826;10.880;2022-07-04T05:08:33;98838.8615;;;17.03;75.39
4326;BME280;58429;49.826;10.880;2022-07-04T05:09:33;98838.0333;;;17;75.37
4326;BME280;58429;49.826;10.880;2022-07-04T05:10:33;98839.8809;;;17.07;75.17